createdAt,value
2018-03-18T00:01:55.996Z,-0.31
2018-03-18T00:04:24.361Z,-0.77
2018-03-18T00:06:52.734Z,-0.51
2018-03-18T00:09:21.116Z,-0.58
2018-03-18T00:11:49.497Z,-0.71
2018-03-18T00:14:17.864Z,-0.60
2018-03-18T00:16:46.242Z,-0.19
2018-03-18T00:19:14.637Z,-0.27
2018-03-18T00:21:43.008Z,-0.99
2018-03-18T00:24:11.545Z,-0.52
2018-03-18T00:26:40.018Z,-0.30
2018-03-18T00:29:08.381Z,-0.23
2018-03-18T00:31:36.744Z,-0.90
2018-03-18T00:34:05.104Z,-0.36
2018-03-18T00:36:33.504Z,-0.31
2018-03-18T00:39:01.859Z,-0.48
2018-03-18T00:41:30.953Z,-0.50
2018-03-18T00:43:59.352Z,-0.57
2018-03-18T00:46:27.711Z,-0.45
2018-03-18T00:48:56.150Z,-0.82
2018-03-18T00:51:42.271Z,-0.41
2018-03-18T00:54:11.076Z,-0.47
2018-03-18T00:56:39.400Z,-0.77
2018-03-18T00:59:07.772Z,-0.50
2018-03-18T01:01:36.147Z,-0.69
2018-03-18T01:04:04.932Z,-0.82
2018-03-18T01:06:33.307Z,-0.94
2018-03-18T01:09:01.664Z,-0.92
2018-03-18T01:11:30.044Z,-1.03
2018-03-18T01:13:58.420Z,-1.02
2018-03-18T01:16:26.796Z,-0.82
2018-03-18T01:18:55.180Z,-0.99
2018-03-18T01:21:23.540Z,-0.98
2018-03-18T01:23:51.966Z,-0.84
2018-03-18T01:26:20.328Z,-0.44
2018-03-18T01:28:48.688Z,-0.66
2018-03-18T01:31:17.113Z,-0.74
2018-03-18T01:33:45.491Z,-0.94
2018-03-18T01:36:14.280Z,-1.18
2018-03-18T01:38:42.643Z,-1.12
2018-03-18T01:41:11.036Z,-1.13
2018-03-18T01:43:39.810Z,-1.25
2018-03-18T01:46:08.175Z,-1.48
2018-03-18T01:48:36.529Z,-0.93
2018-03-18T01:51:04.929Z,-0.67
2018-03-18T01:53:33.338Z,-0.30
2018-03-18T01:56:01.707Z,-1.08
2018-03-18T01:58:31.678Z,-0.96
2018-03-18T02:01:00.071Z,-0.66
2018-03-18T02:03:28.435Z,-0.85
2018-03-18T02:05:56.803Z,-0.74
2018-03-18T02:08:25.191Z,-0.88
2018-03-18T02:10:53.591Z,-0.88
2018-03-18T02:13:21.988Z,-0.84
2018-03-18T02:15:50.361Z,-0.91
2018-03-18T02:18:18.744Z,-1.28
2018-03-18T02:20:47.145Z,-0.63
2018-03-18T02:23:16.027Z,-1.08
2018-03-18T02:25:44.421Z,-1.25
2018-03-18T02:28:12.810Z,-0.98
2018-03-18T02:30:41.597Z,-1.45
2018-03-18T02:33:09.958Z,-1.21
2018-03-18T02:35:38.348Z,-1.62
2018-03-18T02:38:07.145Z,-1.02
2018-03-18T02:40:35.856Z,-1.73
2018-03-18T02:43:04.253Z,-1.60
2018-03-18T02:45:32.635Z,-1.09
2018-03-18T02:48:01.019Z,-1.03
2018-03-18T02:50:29.398Z,-1.89
2018-03-18T02:52:57.816Z,-1.59
2018-03-18T02:55:26.608Z,-1.82
2018-03-18T02:57:55.394Z,-1.42
2018-03-18T03:00:24.200Z,-1.49
2018-03-18T03:02:53.125Z,-1.23
2018-03-18T03:05:21.558Z,-1.20
2018-03-18T03:07:50.427Z,-1.22
2018-03-18T03:10:18.821Z,-1.67
2018-03-18T03:12:47.188Z,-1.37
2018-03-18T03:15:15.572Z,-1.13
2018-03-18T03:17:43.952Z,-1.29
2018-03-18T03:20:12.344Z,-1.08
2018-03-18T03:22:40.801Z,-1.60
2018-03-18T03:25:09.200Z,-0.97
2018-03-18T03:27:37.985Z,-1.06
2018-03-18T03:30:06.866Z,-1.60
2018-03-18T03:32:35.258Z,-1.71
2018-03-18T03:35:04.061Z,-1.59
2018-03-18T03:37:32.840Z,-1.67
2018-03-18T03:40:01.629Z,-1.35
2018-03-18T03:42:30.036Z,-1.35
2018-03-18T03:44:58.416Z,-1.57
2018-03-18T03:47:26.828Z,-1.83
2018-03-18T03:49:55.228Z,-1.76
2018-03-18T03:52:23.603Z,-1.65
2018-03-18T03:54:52.730Z,-2.42
2018-03-18T03:57:21.535Z,-1.59
2018-03-18T03:59:50.290Z,-1.83
2018-03-18T04:02:18.869Z,-1.99
2018-03-18T04:04:47.645Z,-2.33
2018-03-18T04:07:16.042Z,-2.18
2018-03-18T04:09:44.823Z,-1.52
2018-03-18T04:12:13.203Z,-1.69
2018-03-18T04:14:42.118Z,-1.93
2018-03-18T04:17:10.563Z,-2.13
2018-03-18T04:19:39.055Z,-2.02
2018-03-18T04:22:07.567Z,-1.83
2018-03-18T04:24:35.952Z,-1.94
2018-03-18T04:27:04.399Z,-1.86
2018-03-18T04:29:32.781Z,-1.51
2018-03-18T04:32:01.573Z,-2.05
2018-03-18T04:34:30.368Z,-1.97
2018-03-18T04:36:59.177Z,-1.84
2018-03-18T04:39:27.552Z,-1.98
2018-03-18T04:41:55.971Z,-1.94
2018-03-18T04:44:24.367Z,-1.52
2018-03-18T04:46:52.797Z,-1.60
2018-03-18T04:49:21.166Z,-2.23
2018-03-18T04:51:49.589Z,-2.05
2018-03-18T04:54:17.997Z,-1.79
2018-03-18T04:56:46.479Z,-2.01
2018-03-18T04:59:14.909Z,-1.67
2018-03-18T05:01:43.681Z,-1.60
2018-03-18T05:04:12.084Z,-1.71
2018-03-18T05:06:40.479Z,-2.23
2018-03-18T05:09:09.056Z,-2.24
2018-03-18T05:11:37.446Z,-2.07
2018-03-18T05:14:05.845Z,-1.85
2018-03-18T05:16:34.238Z,-1.98
2018-03-18T05:19:03.020Z,-2.12
2018-03-18T05:21:31.399Z,-2.03
2018-03-18T05:24:00.183Z,-2.08
2018-03-18T05:26:28.574Z,-2.04
2018-03-18T05:28:57.354Z,-1.83
2018-03-18T05:31:26.151Z,-1.93
2018-03-18T05:33:54.539Z,-2.07
2018-03-18T05:36:22.926Z,-1.76
2018-03-18T05:38:51.312Z,-1.85
2018-03-18T05:41:19.708Z,-1.59
2018-03-18T05:43:48.076Z,-1.22
2018-03-18T05:46:16.452Z,-0.48
2018-03-18T05:48:45.208Z,-0.25
2018-03-18T05:51:13.580Z,0.35
2018-03-18T05:53:41.951Z,0.15
2018-03-18T05:56:10.336Z,0.80
2018-03-18T05:58:38.693Z,1.78
2018-03-18T06:01:07.072Z,2.38
2018-03-18T06:03:35.428Z,2.38
2018-03-18T06:06:03.780Z,2.68
2018-03-18T06:08:32.540Z,2.28
2018-03-18T06:11:00.893Z,2.40
2018-03-18T06:13:29.250Z,2.54
2018-03-18T06:15:57.609Z,2.79
2018-03-18T06:18:26.356Z,2.86
2018-03-18T06:20:54.758Z,2.45
2018-03-18T06:23:23.119Z,2.41
2018-03-18T06:25:51.492Z,1.90
2018-03-18T06:28:19.859Z,2.77
2018-03-18T06:30:48.228Z,3.53
2018-03-18T06:33:17.185Z,3.84
2018-03-18T06:35:45.944Z,3.99
2018-03-18T06:38:14.292Z,3.75
2018-03-18T06:40:42.684Z,3.10
2018-03-18T06:43:11.043Z,4.35
2018-03-18T06:45:39.435Z,5.50
2018-03-18T06:48:07.784Z,5.47
2018-03-18T06:50:36.154Z,5.51
2018-03-18T06:53:04.912Z,4.82
2018-03-18T06:55:33.259Z,4.45
2018-03-18T06:58:01.608Z,4.60
2018-03-18T07:00:30.032Z,4.13
2018-03-18T07:02:59.201Z,4.01
2018-03-18T07:05:27.582Z,4.04
2018-03-18T07:07:55.923Z,4.95
2018-03-18T07:10:24.676Z,4.06
2018-03-18T07:12:53.026Z,4.26
2018-03-18T07:15:21.492Z,4.81
2018-03-18T07:17:49.849Z,5.52
2018-03-18T07:20:18.621Z,5.67
2018-03-18T07:22:47.387Z,6.91
2018-03-18T07:25:15.759Z,5.16
2018-03-18T07:27:44.112Z,4.36
2018-03-18T07:30:12.643Z,4.61
2018-03-18T07:32:41.016Z,4.44
2018-03-18T07:35:09.379Z,5.03
2018-03-18T07:37:37.729Z,6.72
2018-03-18T07:40:06.112Z,7.97
2018-03-18T07:42:34.472Z,6.66
2018-03-18T07:45:02.823Z,7.35
2018-03-18T07:47:32.375Z,6.80
2018-03-18T07:50:00.789Z,5.94
2018-03-18T07:52:29.153Z,6.14
2018-03-18T07:54:57.504Z,6.83
2018-03-18T07:57:25.863Z,6.65
2018-03-18T07:59:54.600Z,6.69
2018-03-18T08:02:22.951Z,6.50
2018-03-18T08:04:51.304Z,6.80
2018-03-18T08:07:20.168Z,7.52
2018-03-18T08:09:48.512Z,6.95
2018-03-18T08:12:16.870Z,6.90
2018-03-18T08:14:45.232Z,6.92
2018-03-18T08:17:13.584Z,7.74
2018-03-18T08:19:42.355Z,7.65
2018-03-18T08:22:10.712Z,8.71
2018-03-18T08:24:39.058Z,8.77
2018-03-18T08:27:07.433Z,7.71
2018-03-18T08:29:35.783Z,7.79
2018-03-18T08:32:04.140Z,8.07
2018-03-18T08:34:32.590Z,8.57
2018-03-18T08:37:00.939Z,9.35
2018-03-18T08:39:29.686Z,9.57
2018-03-18T08:41:58.055Z,8.11
2018-03-18T08:44:26.400Z,8.33
2018-03-18T08:46:54.759Z,8.47
2018-03-18T08:49:23.504Z,7.36
2018-03-18T08:51:51.876Z,7.59
2018-03-18T08:54:20.252Z,8.37
2018-03-18T08:56:48.612Z,8.75
2018-03-18T08:59:16.997Z,9.21
2018-03-18T09:01:45.359Z,7.84
2018-03-18T09:04:14.160Z,7.10
2018-03-18T09:06:42.564Z,8.10
2018-03-18T09:09:10.932Z,7.72
2018-03-18T09:11:39.285Z,7.29
2018-03-18T09:14:07.628Z,7.89
2018-03-18T09:16:35.981Z,8.51
2018-03-18T09:19:04.345Z,8.60
2018-03-18T09:21:33.648Z,9.22
2018-03-18T09:24:02.005Z,8.33
2018-03-18T09:26:30.368Z,7.61
2018-03-18T09:28:59.131Z,8.43
2018-03-18T09:31:27.484Z,9.48
2018-03-18T09:33:55.867Z,9.41
2018-03-18T09:36:24.235Z,8.86
2018-03-18T09:38:52.701Z,9.44
2018-03-18T09:41:21.115Z,10.11
2018-03-18T09:43:49.456Z,9.94
2018-03-18T09:46:17.860Z,8.79
2018-03-18T09:48:46.236Z,7.89
2018-03-18T09:51:14.591Z,9.07
2018-03-18T09:53:42.939Z,9.52
2018-03-18T09:56:11.749Z,8.54
2018-03-18T09:58:40.088Z,8.91
2018-03-18T10:01:08.518Z,9.21
2018-03-18T10:03:36.862Z,8.81
2018-03-18T10:06:05.608Z,9.51
2018-03-18T10:08:33.965Z,10.00
2018-03-18T10:11:02.323Z,9.33
2018-03-18T10:13:30.726Z,8.63
2018-03-18T10:15:59.104Z,8.31
2018-03-18T10:18:27.452Z,8.42
2018-03-18T10:20:56.205Z,8.56
2018-03-18T10:23:24.557Z,7.59
2018-03-18T10:25:52.920Z,6.83
2018-03-18T10:28:21.267Z,6.75
2018-03-18T10:30:50.040Z,6.66
2018-03-18T10:33:18.787Z,7.31
2018-03-18T10:35:47.164Z,7.56
2018-03-18T10:38:15.511Z,7.80
2018-03-18T10:40:43.869Z,8.12
2018-03-18T10:43:12.239Z,7.51
2018-03-18T10:45:40.605Z,7.18
2018-03-18T10:48:08.965Z,6.85
2018-03-18T10:50:37.335Z,6.63
2018-03-18T10:53:05.692Z,6.49
2018-03-18T10:55:34.052Z,6.90
2018-03-18T10:58:02.791Z,6.69
2018-03-18T11:00:36.610Z,6.77
2018-03-18T11:03:04.960Z,7.47
2018-03-18T11:05:33.315Z,7.11
2018-03-18T11:08:01.728Z,7.12
2018-03-18T11:10:30.152Z,6.83
2018-03-18T11:12:59.016Z,6.46
2018-03-18T11:15:27.413Z,7.31
2018-03-18T11:17:55.756Z,6.58
2018-03-18T11:20:24.206Z,5.81
2018-03-18T11:22:52.596Z,5.67
2018-03-18T11:25:21.014Z,5.60
2018-03-18T11:27:49.375Z,4.34
2018-03-18T11:30:17.744Z,4.65
2018-03-18T11:32:46.095Z,4.81
2018-03-18T11:35:14.493Z,4.59
2018-03-18T11:40:17.615Z,3.62
2018-03-18T11:42:45.996Z,4.19
2018-03-18T11:45:14.364Z,4.54
2018-03-18T11:47:42.717Z,4.22
2018-03-18T11:50:11.132Z,3.45
2018-03-18T11:52:39.508Z,4.11
2018-03-18T11:55:07.879Z,3.85
2018-03-18T11:57:36.271Z,3.78
2018-03-18T12:00:04.657Z,3.93
2018-03-18T12:02:33.004Z,3.93
2018-03-18T12:05:01.360Z,4.24
2018-03-18T12:07:29.739Z,3.78
2018-03-18T12:09:58.087Z,4.00
2018-03-18T12:12:26.445Z,4.04
2018-03-18T12:14:54.787Z,3.73
2018-03-18T12:17:23.149Z,3.30
2018-03-18T12:19:51.504Z,3.65
2018-03-18T12:22:19.907Z,3.10
2018-03-18T12:24:48.247Z,3.90
2018-03-18T12:27:16.608Z,3.21
2018-03-18T12:29:45.004Z,3.86
2018-03-18T12:32:13.368Z,3.75
2018-03-18T12:34:41.716Z,3.46
2018-03-18T12:37:10.084Z,3.63
2018-03-18T12:39:56.216Z,3.87
2018-03-18T12:42:42.256Z,3.83
2018-03-18T12:45:11.080Z,3.73
2018-03-18T12:47:39.580Z,3.67
2018-03-18T12:50:07.934Z,3.64
2018-03-18T12:52:36.292Z,4.18
2018-03-18T12:55:04.643Z,4.16
2018-03-18T12:57:33.004Z,3.98
2018-03-18T13:00:01.365Z,3.78
2018-03-18T13:02:29.719Z,3.71
2018-03-18T13:04:58.083Z,3.74
2018-03-18T13:07:26.839Z,3.03
2018-03-18T13:09:55.202Z,3.53
2018-03-18T13:12:23.567Z,3.26
2018-03-18T13:14:51.924Z,4.01
2018-03-18T13:17:20.343Z,3.95
2018-03-18T13:19:48.731Z,4.27
2018-03-18T13:22:17.144Z,4.50
2018-03-18T13:24:45.564Z,4.44
2018-03-18T13:27:14.271Z,4.29
2018-03-18T13:29:42.648Z,4.08
2018-03-18T13:32:11.013Z,4.59
2018-03-18T13:34:39.369Z,4.99
2018-03-18T13:37:07.780Z,4.91
2018-03-18T13:39:36.133Z,4.16
2018-03-18T13:42:04.526Z,4.24
2018-03-18T13:44:32.872Z,4.53
2018-03-18T13:47:01.231Z,4.39
2018-03-18T13:49:29.984Z,4.34
2018-03-18T13:51:58.340Z,4.21
2018-03-18T13:54:26.703Z,4.69
2018-03-18T13:56:55.059Z,4.13
2018-03-18T13:59:23.812Z,4.35
2018-03-18T14:01:52.169Z,4.05
2018-03-18T14:04:20.531Z,4.01
2018-03-18T14:06:48.912Z,4.20
2018-03-18T14:09:17.264Z,5.06
2018-03-18T14:11:46.031Z,5.20
2018-03-18T14:14:14.377Z,4.90
2018-03-18T14:16:42.736Z,4.10
2018-03-18T14:19:11.100Z,4.21
2018-03-18T14:21:39.459Z,3.97
2018-03-18T14:24:08.203Z,4.60
2018-03-18T14:26:36.564Z,4.73
2018-03-18T15:18:06.823Z,4.25
2018-03-18T15:20:35.175Z,4.52
2018-03-18T15:23:03.514Z,4.42
2018-03-18T15:25:32.274Z,4.23
2018-03-18T15:28:00.623Z,4.44
2018-03-18T15:30:28.992Z,4.31
2018-03-18T15:32:57.345Z,4.40
2018-03-18T15:35:25.788Z,4.38
2018-03-18T15:37:54.140Z,4.67
2018-03-18T15:40:22.533Z,3.93
2018-03-18T15:42:50.907Z,3.79
2018-03-18T15:45:19.296Z,4.00
2018-03-18T15:47:47.710Z,3.99
2018-03-18T15:50:16.024Z,3.70
2018-03-18T15:52:44.377Z,3.57
2018-03-18T15:55:12.784Z,3.79
2018-03-18T15:57:41.215Z,4.03
2018-03-18T16:00:09.964Z,4.00
2018-03-18T16:02:38.342Z,4.07
2018-03-18T16:05:06.798Z,3.63
2018-03-18T16:07:35.207Z,3.75
2018-03-18T16:10:03.579Z,4.25
2018-03-18T16:12:32.044Z,4.53
2018-03-18T16:15:00.558Z,4.29
2018-03-18T16:17:29.057Z,4.56
2018-03-18T16:19:57.569Z,4.20
2018-03-18T16:22:26.081Z,3.85
2018-03-18T16:24:54.529Z,3.73
2018-03-18T16:27:23.032Z,3.61
2018-03-18T16:30:09.246Z,3.60
2018-03-18T16:32:37.780Z,3.47
2018-03-18T16:35:06.269Z,3.49
2018-03-18T16:37:34.720Z,3.54
2018-03-18T16:40:03.629Z,3.56
2018-03-18T16:42:32.148Z,3.59
2018-03-18T16:45:00.652Z,3.71
2018-03-18T16:47:29.129Z,3.93
2018-03-18T16:52:22.703Z,3.25
2018-03-18T16:55:05.438Z,3.82
2018-03-18T16:57:35.586Z,4.13
2018-03-18T17:00:16.397Z,3.69
2018-03-18T17:02:45.260Z,3.67
2018-03-18T17:05:43.675Z,3.80
2018-03-18T17:08:24.277Z,3.24
2018-03-18T17:11:11.606Z,3.48
2018-03-18T17:14:00.531Z,3.06
2018-03-18T17:16:36.587Z,2.98
2018-03-18T17:19:20.632Z,3.47
2018-03-18T17:25:18.488Z,3.18
2018-03-18T17:27:47.985Z,2.96
2018-03-18T17:30:16.518Z,2.80
2018-03-18T17:32:45.939Z,2.86
2018-03-18T17:35:14.408Z,3.26
2018-03-18T17:37:43.153Z,3.58
2018-03-18T17:40:12.191Z,3.16
2018-03-18T17:42:40.945Z,3.33
2018-03-18T17:45:27.632Z,3.07
2018-03-18T17:48:13.616Z,3.42
2018-03-18T17:51:00.464Z,3.82
2018-03-18T17:53:46.662Z,3.19
2018-03-18T17:56:33.696Z,3.13
2018-03-18T18:01:35.220Z,2.72
2018-03-18T18:04:04.276Z,2.57
2018-03-18T18:06:32.844Z,3.02
2018-03-18T18:09:01.886Z,3.03
2018-03-18T18:11:31.011Z,2.88
2018-03-18T18:14:00.000Z,2.99
2018-03-18T18:16:29.827Z,3.20
2018-03-18T18:18:58.584Z,3.54
2018-03-18T18:21:27.749Z,2.74
2018-03-18T18:24:04.980Z,2.78
2018-03-18T18:26:33.820Z,2.44
2018-03-18T18:31:36.146Z,2.99
2018-03-18T18:34:05.170Z,2.24
2018-03-18T18:36:34.672Z,2.42
2018-03-18T18:39:03.265Z,2.53
2018-03-18T18:41:32.160Z,2.70
2018-03-18T18:44:01.055Z,2.57
2018-03-18T18:46:29.794Z,2.77
2018-03-18T18:48:58.665Z,2.91
2018-03-18T18:51:27.188Z,2.80
2018-03-18T18:53:55.726Z,2.74
2018-03-18T18:56:24.517Z,2.98
2018-03-18T18:58:53.444Z,2.78
2018-03-18T19:01:22.692Z,3.07
2018-03-18T19:03:51.287Z,3.21
2018-03-18T19:06:20.409Z,3.16
2018-03-18T19:08:49.561Z,3.28
2018-03-18T19:11:18.386Z,3.19
2018-03-18T19:13:47.122Z,3.30
2018-03-18T19:16:15.803Z,3.25
2018-03-18T19:18:45.273Z,3.03
2018-03-18T19:21:13.838Z,2.92
2018-03-18T19:23:42.629Z,2.46
2018-03-18T19:26:11.730Z,2.51
2018-03-18T19:28:40.664Z,2.65
2018-03-18T19:31:09.290Z,2.84
2018-03-18T19:33:38.315Z,3.01
2018-03-18T19:36:06.952Z,3.02
2018-03-18T19:38:35.477Z,2.57
2018-03-18T19:41:04.576Z,2.68
2018-03-18T19:43:33.398Z,2.75
2018-03-18T19:46:02.762Z,2.41
2018-03-18T19:48:31.348Z,2.72
2018-03-18T19:51:00.153Z,2.59
2018-03-18T19:53:28.592Z,3.24
2018-03-18T19:55:57.328Z,2.89
2018-03-18T19:58:25.970Z,3.28
2018-03-18T20:00:54.806Z,2.59
2018-03-18T20:03:23.593Z,2.61
2018-03-18T20:05:52.373Z,2.64
2018-03-18T20:08:21.163Z,2.70
2018-03-18T20:10:50.015Z,2.54
2018-03-18T20:13:27.270Z,2.44
2018-03-18T20:15:56.084Z,2.46
2018-03-18T20:18:24.857Z,2.59
2018-03-18T20:20:57.228Z,2.89
2018-03-18T20:23:26.640Z,2.67
2018-03-18T20:29:27.743Z,2.60
2018-03-18T20:31:56.313Z,2.81
2018-03-18T20:34:24.973Z,2.79
2018-03-18T20:36:53.901Z,2.64
2018-03-18T20:39:23.596Z,2.82
2018-03-18T20:41:53.357Z,2.98
2018-03-18T20:44:22.751Z,2.55
2018-03-18T20:46:53.293Z,2.31
2018-03-18T20:49:22.588Z,2.36
2018-03-18T20:51:51.354Z,2.98
2018-03-18T20:54:22.223Z,2.33
2018-03-18T20:56:50.728Z,2.24
2018-03-18T20:59:21.175Z,2.01
2018-03-18T21:01:51.264Z,2.03
2018-03-18T21:04:20.690Z,2.08
2018-03-18T21:06:51.994Z,2.23
2018-03-18T21:09:21.112Z,2.48
2018-03-18T21:11:50.526Z,2.60
2018-03-18T21:14:19.263Z,2.53
2018-03-18T21:16:48.044Z,2.41
2018-03-18T21:19:16.544Z,2.61
2018-03-18T21:21:45.094Z,2.23
2018-03-18T21:24:13.833Z,2.14
2018-03-18T21:26:42.651Z,2.11
2018-03-18T21:29:11.417Z,2.40
2018-03-18T21:31:40.653Z,2.19
2018-03-18T21:34:09.481Z,2.57
2018-03-18T21:36:37.954Z,2.56
2018-03-18T21:39:06.476Z,2.23
2018-03-18T21:41:36.036Z,2.25
2018-03-18T21:44:04.683Z,2.46
2018-03-18T21:46:34.125Z,2.37
2018-03-18T21:49:02.961Z,2.28
2018-03-18T21:51:31.824Z,2.31
2018-03-18T21:54:00.590Z,2.24
2018-03-18T21:56:29.209Z,2.22
2018-03-18T21:58:58.341Z,2.15
2018-03-18T22:01:27.244Z,1.75
2018-03-18T22:03:56.545Z,2.31
2018-03-18T22:06:25.986Z,1.65
2018-03-18T22:08:55.587Z,1.63
2018-03-18T22:11:24.567Z,1.98
2018-03-18T22:13:53.276Z,2.29
2018-03-18T22:16:22.448Z,2.32
2018-03-18T22:18:51.309Z,2.10
2018-03-18T22:21:19.908Z,1.96
2018-03-18T22:23:49.546Z,2.25
2018-03-18T22:26:18.839Z,1.93
2018-03-18T22:28:47.860Z,1.92
2018-03-18T22:31:16.778Z,1.64
2018-03-18T22:33:46.205Z,1.69
2018-03-18T22:36:15.754Z,1.86
2018-03-18T22:38:44.606Z,1.93
2018-03-18T22:41:13.626Z,1.74
2018-03-18T22:43:42.339Z,1.66
2018-03-18T22:46:11.507Z,1.94
2018-03-18T22:48:41.495Z,2.29
2018-03-18T22:51:11.779Z,2.40
2018-03-18T22:53:41.016Z,1.80
2018-03-18T22:56:09.959Z,1.92
2018-03-18T22:58:38.862Z,1.64
2018-03-18T23:01:07.837Z,1.91
2018-03-18T23:03:37.456Z,1.62
2018-03-18T23:06:06.365Z,1.79
2018-03-18T23:08:35.205Z,1.69
2018-03-18T23:11:04.719Z,1.92
2018-03-18T23:13:33.593Z,1.60
2018-03-18T23:16:02.364Z,1.86
2018-03-18T23:18:31.149Z,1.72
2018-03-18T23:21:00.552Z,1.67
2018-03-18T23:23:29.398Z,1.69
2018-03-18T23:25:57.958Z,1.76
2018-03-18T23:28:27.289Z,1.23
2018-03-18T23:30:57.287Z,1.28
2018-03-18T23:33:26.099Z,1.29
2018-03-18T23:35:54.816Z,1.01
2018-03-18T23:38:23.932Z,1.49
2018-03-18T23:40:52.726Z,1.57
2018-03-18T23:43:21.467Z,1.26
2018-03-18T23:45:51.384Z,1.70
2018-03-18T23:48:20.013Z,2.07
2018-03-18T23:50:49.219Z,1.83
2018-03-18T23:53:18.242Z,1.56
2018-03-18T23:55:47.263Z,1.49
2018-03-18T23:58:16.063Z,1.67
